createdAt,value
2022-09-23T00:02:11.137Z,5.31
2022-09-23T00:07:13.242Z,5.47
2022-09-23T00:12:15.331Z,5.56
2022-09-23T00:17:17.677Z,5.55
2022-09-23T00:22:20.367Z,5.56
2022-09-23T00:27:22.432Z,5.66
2022-09-23T00:32:24.949Z,5.55
2022-09-23T00:37:28.946Z,5.39
2022-09-23T00:42:31.346Z,5.15
2022-09-23T00:47:56.164Z,5.18
2022-09-23T00:53:01.775Z,4.99
2022-09-23T00:58:07.456Z,4.95
2022-09-23T01:03:10.870Z,4.89
2022-09-23T01:08:14.685Z,4.73
2022-09-23T01:13:55.175Z,4.65
2022-09-23T01:19:23.189Z,4.65
2022-09-23T01:24:44.677Z,4.67
2022-09-23T01:29:54.521Z,4.59
2022-09-23T01:35:30.907Z,4.75
2022-09-23T01:40:45.879Z,4.73
2022-09-23T01:45:54.839Z,4.64
2022-09-23T01:51:06.562Z,4.68
2022-09-23T01:56:19.783Z,4.64
2022-09-23T02:01:47.168Z,4.53
2022-09-23T02:07:03.034Z,4.71
2022-09-23T02:12:12.971Z,4.84
2022-09-23T02:17:19.942Z,4.59
2022-09-23T02:22:28.559Z,4.72
2022-09-23T02:27:43.217Z,4.75
2022-09-23T02:33:15.688Z,4.89
2022-09-23T02:38:24.557Z,5.02
2022-09-23T02:43:46.287Z,5.08
2022-09-23T02:49:01.167Z,5.28
2022-09-23T02:54:07.443Z,5.50
2022-09-23T02:59:11.813Z,5.60
2022-09-23T03:04:35.735Z,5.71
2022-09-23T03:10:00.201Z,5.60
2022-09-23T03:15:26.478Z,5.46
2022-09-23T03:20:36.467Z,5.16
2022-09-23T03:25:43.142Z,5.12
2022-09-23T03:30:45.622Z,5.12
2022-09-23T03:36:28.259Z,5.29
2022-09-23T03:41:39.484Z,5.31
2022-09-23T03:46:46.819Z,5.14
2022-09-23T03:51:49.100Z,5.43
2022-09-23T03:56:51.193Z,5.28
2022-09-23T04:01:54.253Z,5.34
2022-09-23T04:06:56.922Z,5.17
2022-09-23T04:11:59.253Z,5.24
2022-09-23T04:17:02.984Z,5.42
2022-09-23T04:22:05.894Z,5.42
2022-09-23T04:27:08.106Z,5.67
2022-09-23T04:32:10.420Z,5.81
2022-09-23T04:37:12.616Z,5.76
2022-09-23T04:42:14.990Z,5.92
2022-09-23T04:47:19.526Z,5.98
2022-09-23T04:52:22.007Z,5.94
2022-09-23T04:57:24.915Z,5.78
2022-09-23T05:02:28.566Z,5.81
2022-09-23T05:07:30.788Z,6.31
2022-09-23T05:12:33.239Z,6.58
2022-09-23T05:17:37.533Z,6.59
2022-09-23T05:22:39.854Z,6.31
2022-09-23T05:27:42.625Z,6.61
2022-09-23T05:32:44.914Z,6.99
2022-09-23T05:37:47.095Z,7.05
2022-09-23T05:42:50.280Z,7.25
2022-09-23T05:47:52.518Z,7.17
2022-09-23T05:52:55.128Z,7.32
2022-09-23T05:57:57.228Z,9.11
2022-09-23T06:02:59.626Z,14.45
2022-09-23T06:08:01.959Z,21.83
2022-09-23T06:13:04.517Z,25.07
2022-09-23T06:18:07.076Z,26.37
2022-09-23T06:23:11.502Z,26.71
2022-09-23T06:28:14.704Z,18.82
2022-09-23T06:33:19.334Z,18.00
2022-09-23T06:38:26.741Z,16.34
2022-09-23T06:43:29.317Z,13.37
2022-09-23T06:48:35.434Z,16.44
2022-09-23T06:53:37.550Z,19.78
2022-09-23T06:58:40.655Z,22.09
2022-09-23T07:03:43.491Z,20.53
2022-09-23T07:08:47.652Z,18.59
2022-09-23T07:13:49.987Z,19.95
2022-09-23T07:18:53.668Z,20.06
2022-09-23T07:23:58.330Z,21.06
2022-09-23T07:29:05.358Z,20.32
2022-09-23T07:49:22.356Z,22.88
2022-09-23T07:54:25.845Z,22.59
2022-09-23T07:59:28.103Z,21.60
2022-09-23T08:04:32.038Z,20.35
2022-09-23T08:09:41.802Z,18.99
2022-09-23T08:14:44.569Z,21.12
2022-09-23T08:19:46.684Z,20.05
2022-09-23T08:24:48.703Z,20.92
2022-09-23T08:29:50.852Z,19.55
2022-09-23T08:34:53.065Z,17.22
2022-09-23T08:39:55.265Z,17.40
2022-09-23T08:45:02.079Z,18.28
2022-09-23T08:50:24.842Z,20.79
2022-09-23T08:55:34.208Z,21.98
2022-09-23T09:00:46.434Z,20.34
2022-09-23T09:05:54.250Z,19.24
2022-09-23T09:10:58.749Z,21.02
2022-09-23T09:16:13.148Z,21.89
2022-09-23T09:21:16.168Z,22.14
2022-09-23T09:26:23.334Z,23.51
2022-09-23T09:31:33.259Z,22.54
2022-09-23T09:36:44.152Z,22.34
2022-09-23T09:41:48.248Z,20.79
2022-09-23T09:47:01.498Z,20.99
2022-09-23T09:52:26.240Z,20.03
2022-09-23T09:57:35.925Z,20.93
2022-09-23T10:02:40.362Z,21.97
2022-09-23T10:07:42.612Z,20.97
2022-09-23T10:12:47.117Z,20.64
2022-09-23T10:17:52.021Z,21.28
2022-09-23T10:22:56.439Z,20.67
2022-09-23T10:27:58.639Z,19.29
2022-09-23T10:33:01.469Z,18.41
2022-09-23T10:38:03.681Z,17.20
2022-09-23T10:43:42.667Z,16.39
2022-09-23T10:48:55.549Z,15.89
2022-09-23T10:54:05.246Z,15.99
2022-09-23T10:59:28.185Z,16.03
2022-09-23T11:04:30.380Z,15.88
2022-09-23T11:09:44.557Z,16.14
2022-09-23T11:15:11.218Z,15.98
2022-09-23T11:20:21.450Z,16.06
2022-09-23T11:25:42.379Z,17.07
2022-09-23T11:30:56.157Z,16.55
2022-09-23T11:36:10.021Z,16.88
2022-09-23T11:41:38.745Z,17.13
2022-09-23T11:46:49.381Z,17.51
2022-09-23T11:51:54.617Z,17.87
2022-09-23T11:57:03.768Z,17.60
2022-09-23T12:02:31.483Z,17.42
2022-09-23T12:07:56.854Z,18.13
2022-09-23T12:13:16.378Z,17.74
2022-09-23T12:18:33.355Z,17.07
2022-09-23T12:24:18.911Z,16.47
2022-09-23T12:29:21.818Z,16.26
2022-09-23T12:34:30.290Z,16.27
2022-09-23T12:39:41.732Z,16.32
2022-09-23T12:44:47.429Z,16.83
2022-09-23T12:49:50.948Z,17.12
2022-09-23T12:54:58.041Z,17.14
2022-09-23T13:00:11.650Z,16.71
2022-09-23T13:05:38.438Z,16.65
2022-09-23T13:11:00.336Z,16.67
2022-09-23T13:16:13.577Z,16.31
2022-09-23T13:21:19.075Z,16.07
2022-09-23T13:26:21.781Z,16.92
2022-09-23T13:31:23.860Z,17.16
2022-09-23T13:36:26.523Z,16.86
2022-09-23T13:41:28.894Z,16.22
2022-09-23T13:46:40.674Z,16.28
2022-09-23T13:51:45.123Z,16.20
2022-09-23T13:56:49.801Z,16.24
2022-09-23T14:02:05.128Z,15.43
2022-09-23T14:07:09.820Z,15.26
2022-09-23T14:12:12.573Z,14.48
2022-09-23T14:17:18.699Z,13.24
2022-09-23T14:22:27.089Z,13.63
2022-09-23T14:27:32.723Z,13.51
2022-09-23T14:32:35.189Z,14.28
2022-09-23T14:37:55.726Z,14.61
2022-09-23T14:43:03.924Z,13.52
2022-09-23T14:48:10.044Z,13.88
2022-09-23T14:53:24.312Z,13.82
2022-09-23T14:58:30.841Z,13.38
2022-09-23T15:03:33.180Z,13.59
2022-09-23T15:08:36.043Z,13.46
2022-09-23T15:13:41.919Z,13.01
2022-09-23T15:18:46.427Z,12.89
2022-09-23T15:23:48.570Z,12.44
2022-09-23T15:28:56.060Z,12.36
2022-09-23T15:33:58.605Z,12.09
2022-09-23T15:39:06.842Z,12.11
2022-09-23T15:44:18.053Z,11.66
2022-09-23T15:49:34.621Z,11.78
2022-09-23T15:54:38.137Z,11.50
2022-09-23T15:59:41.247Z,10.97
2022-09-23T16:04:43.367Z,10.96
2022-09-23T16:09:45.882Z,10.60
2022-09-23T16:14:48.128Z,10.41
2022-09-23T16:19:50.512Z,10.44
2022-09-23T16:24:52.562Z,10.34
2022-09-23T16:29:54.738Z,10.08
2022-09-23T16:34:58.729Z,9.68
2022-09-23T17:28:15.492Z,8.09
2022-09-23T17:55:08.101Z,7.13
2022-09-23T18:06:48.463Z,7.16
2022-09-23T18:48:06.814Z,7.12
2022-09-23T18:53:12.306Z,7.38
2022-09-23T18:58:14.572Z,7.05
2022-09-23T19:03:17.215Z,6.76
2022-09-23T19:08:19.999Z,6.72
2022-09-23T19:13:22.077Z,6.31
2022-09-23T19:18:24.184Z,6.37
2022-09-23T19:23:29.173Z,6.35
2022-09-23T19:28:31.713Z,6.15
2022-09-23T19:33:34.022Z,5.92
2022-09-23T19:38:39.569Z,6.45
2022-09-23T19:43:41.749Z,5.80
2022-09-23T19:48:44.077Z,5.92
2022-09-23T19:53:46.892Z,5.63
2022-09-23T19:58:54.389Z,5.89
2022-09-23T20:03:57.081Z,5.94
2022-09-23T20:09:01.205Z,6.02
2022-09-23T20:14:06.552Z,5.89
2022-09-23T20:19:10.177Z,5.86
2022-09-23T20:24:48.355Z,5.69
2022-09-23T20:29:51.715Z,5.63
2022-09-23T20:34:54.044Z,5.41
2022-09-23T20:39:56.078Z,5.30
2022-09-23T20:44:58.604Z,5.41
2022-09-23T20:50:00.853Z,6.49
2022-09-23T20:55:03.667Z,6.33
2022-09-23T21:00:30.825Z,5.64
2022-09-23T21:05:31.110Z,5.48
2022-09-23T21:10:36.229Z,5.44
2022-09-23T21:15:38.539Z,5.29
2022-09-23T21:20:40.927Z,5.04
2022-09-23T21:25:44.944Z,4.75
2022-09-23T21:30:51.193Z,5.55
2022-09-23T21:35:55.910Z,5.80
2022-09-23T21:40:59.561Z,5.28
2022-09-23T21:46:04.957Z,5.04
2022-09-23T21:51:09.878Z,4.91
2022-09-23T21:56:21.442Z,4.92
2022-09-23T22:01:26.952Z,4.61
2022-09-23T22:06:30.747Z,4.56
2022-09-23T22:11:51.927Z,4.48
2022-09-23T22:16:59.296Z,4.33
2022-09-23T22:22:03.255Z,4.28
2022-09-23T22:27:07.852Z,4.33
2022-09-23T22:32:30.485Z,4.29
2022-09-23T22:37:35.146Z,4.20
2022-09-23T22:42:37.794Z,4.06
2022-09-23T22:47:44.209Z,3.93
2022-09-23T22:52:47.413Z,4.01
2022-09-23T22:57:51.756Z,3.94
2022-09-23T23:02:54.717Z,4.28
2022-09-23T23:07:57.685Z,4.10
2022-09-23T23:12:59.955Z,4.22
2022-09-23T23:18:02.005Z,4.24
2022-09-23T23:23:04.127Z,4.26
2022-09-23T23:28:06.158Z,4.10
2022-09-23T23:33:08.457Z,4.14
2022-09-23T23:38:13.519Z,4.13
2022-09-23T23:43:15.651Z,4.16
2022-09-23T23:48:20.961Z,4.24
2022-09-23T23:53:24.712Z,4.21
2022-09-23T23:58:28.103Z,4.20
